Search flights

Perales Airport, Ibague (SKIB)

Airport Weather & NOTAM's

METAR for:SKIB (Ibague/Perales Arpt, TO, CO)
Text:SKIB 182300Z VRB02KT 9999 SCT030 BKN100 26/19 Q1014
Conditions at:2300 UTC 18 Jun 2024
Temperature: 26.0°C ( 79°F)
Dewpoint: 19.0°C ( 66°F) [RH = 65%]
Pressure (altimeter):29.94 inches Hg (1014.0 mb)
Winds:variable direction winds at 2 MPH (2 knots; 1.0 m/s)
Visibility:6 or more sm (10+ km)
Ceiling:10000 feet AGL
Clouds:scattered clouds at 3000 feet AGL, broken clouds at 10000 feet AGL

Live Departures & Arrivals

There are currently no arrivals or departures for this airport.

Departures History (last 12 months)

Flight No. Dest. Aircraft Date
{}PAA1022 SKPS Boeing 737... 2024-01-31 00:21:52

Arrivals History (last 12 months)

No arrival history to display.

Runway Information (Airport elevation: 3,055ft)

Runway 14 Length 5,865ft Width 104ft Elevation 2,997ft Surface Asphalt Heading 131
Runway 32 Length 5,865ft Width 104ft Elevation 2,997ft Surface Asphalt Heading 311

Airport Frequencies

Type APP/DEP Frequency 119.650 Mhz
Type APP/DEP Frequency 120.650 Mhz
Type Tower Frequency 118.300 Mhz
Type Tower Frequency 118.850 Mhz
Type AWOS Frequency 127.725 Mhz

Airport Navaids

Type VOR-DME Ident IBG Frequency 112000 Khz
Type NDB Ident IBG Frequency 312 Khz